sensor_id;sensor_type;location;lat;lon;timestamp;pressure;altitude;pressure_sealevel;temperature;humidity
9935;BME280;5006;41.828;23.478;2022-11-23T07:18:48;89089.53;;;12.82;100.00
9935;BME280;5006;41.828;23.478;2022-11-23T07:19:54;89089.63;;;12.67;100.00
9935;BME280;5006;41.828;23.478;2022-11-23T07:20:59;89097.53;;;12.45;100.00
9935;BME280;5006;41.828;23.478;2022-11-23T07:22:05;89100.06;;;12.24;100.00
9935;BME280;5006;41.828;23.478;2022-11-23T07:23:11;89097.31;;;12.40;100.00
9935;BME280;5006;41.828;23.478;2022-11-23T07:24:19;89089.91;;;12.44;100.00
9935;BME280;5006;41.828;23.478;2022-11-23T07:25:25;89094.19;;;12.82;100.00
9935;BME280;5006;41.828;23.478;2022-11-23T07:26:30;89096.91;;;13.19;100.00
9935;BME280;5006;41.828;23.478;2022-11-23T07:27:36;89087.13;;;13.13;100.00
9935;BME280;5006;41.828;23.478;2022-11-23T07:28:42;89083.41;;;12.82;100.00
9935;BME280;5006;41.828;23.478;2022-11-23T07:29:48;89085.19;;;12.48;100.00
9935;BME280;5006;41.828;23.478;2022-11-23T07:30:53;89081.28;;;12.77;100.00
9935;BME280;5006;41.828;23.478;2022-11-23T07:31:59;89083.16;;;12.64;100.00
9935;BME280;5006;41.828;23.478;2022-11-23T07:33:06;89077.00;;;12.51;100.00
9935;BME280;5006;41.828;23.478;2022-11-23T07:34:15;89085.88;;;12.77;100.00
9935;BME280;5006;41.828;23.478;2022-11-23T07:35:21;89083.16;;;13.05;100.00
9935;BME280;5006;41.828;23.478;2022-11-23T07:36:26;89087.88;;;13.26;100.00
9935;BME280;5006;41.828;23.478;2022-11-23T07:37:32;89090.78;;;13.19;100.00
9935;BME280;5006;41.828;23.478;2022-11-23T07:38:38;89089.13;;;13.59;100.00
9935;BME280;5006;41.828;23.478;2022-11-23T07:39:42;89091.72;;;13.62;100.00
9935;BME280;5006;41.828;23.478;2022-11-23T07:40:49;89106.16;;;13.43;100.00
9935;BME280;5006;41.828;23.478;2022-11-23T07:42:12;89103.59;;;13.52;100.00
9935;BME280;5006;41.828;23.478;2022-11-23T07:43:17;89098.31;;;14.08;100.00
9935;BME280;5006;41.828;23.478;2022-11-23T07:44:26;89103.78;;;14.17;100.00
9935;BME280;5006;41.828;23.478;2022-11-23T07:45:32;89102.13;;;13.85;100.00
9935;BME280;5006;41.828;23.478;2022-11-23T07:46:41;89099.16;;;13.71;100.00
9935;BME280;5006;41.828;23.478;2022-11-23T07:47:46;89099.09;;;13.83;100.00
9935;BME280;5006;41.828;23.478;2022-11-23T07:48:51;89102.72;;;14.02;99.49
9935;BME280;5006;41.828;23.478;2022-11-23T07:49:59;89094.47;;;14.52;97.32
9935;BME280;5006;41.828;23.478;2022-11-23T07:51:04;89100.44;;;14.68;95.32
9935;BME280;5006;41.828;23.478;2022-11-23T07:52:09;89092.41;;;14.56;95.09
9935;BME280;5006;41.828;23.478;2022-11-23T07:53:14;89102.69;;;14.27;96.41
9935;BME280;5006;41.828;23.478;2022-11-23T07:54:20;89104.47;;;14.42;96.69
9935;BME280;5006;41.828;23.478;2022-11-23T07:55:25;89100.75;;;14.27;97.62
9935;BME280;5006;41.828;23.478;2022-11-23T07:56:31;89099.34;;;14.23;98.06
9935;BME280;5006;41.828;23.478;2022-11-23T07:57:37;89100.66;;;13.72;100.00
9935;BME280;5006;41.828;23.478;2022-11-23T07:58:42;89095.28;;;14.06;100.00
9935;BME280;5006;41.828;23.478;2022-11-23T07:59:47;89091.94;;;14.02;99.91
9935;BME280;5006;41.828;23.478;2022-11-23T08:00:52;89097.06;;;13.87;100.00
9935;BME280;5006;41.828;23.478;2022-11-23T08:01:57;89105.00;;;14.03;100.00
9935;BME280;5006;41.828;23.478;2022-11-23T08:03:03;89098.41;;;14.04;100.00
9935;BME280;5006;41.828;23.478;2022-11-23T08:04:09;89095.81;;;13.67;100.00
9935;BME280;5006;41.828;23.478;2022-11-23T08:05:16;89101.97;;;13.55;100.00
9935;BME280;5006;41.828;23.478;2022-11-23T08:06:22;89100.16;;;13.39;100.00
9935;BME280;5006;41.828;23.478;2022-11-23T08:07:28;89102.94;;;13.61;100.00
9935;BME280;5006;41.828;23.478;2022-11-23T08:08:33;89096.53;;;14.14;100.00
9935;BME280;5006;41.828;23.478;2022-11-23T08:09:39;89097.28;;;13.93;99.69
9935;BME280;5006;41.828;23.478;2022-11-23T08:10:44;89092.94;;;13.95;100.00
9935;BME280;5006;41.828;23.478;2022-11-23T08:11:49;89087.69;;;14.47;99.61
9935;BME280;5006;41.828;23.478;2022-11-23T08:12:56;89083.38;;;14.16;100.00
9935;BME280;5006;41.828;23.478;2022-11-23T08:14:02;89081.22;;;13.77;100.00
9935;BME280;5006;41.828;23.478;2022-11-23T08:15:08;89073.94;;;13.65;100.00
9935;BME280;5006;41.828;23.478;2022-11-23T08:16:13;89060.47;;;13.99;100.00
9935;BME280;5006;41.828;23.478;2022-11-23T08:17:19;89064.00;;;13.74;100.00
9935;BME280;5006;41.828;23.478;2022-11-23T08:18:24;89059.09;;;13.94;100.00
9935;BME280;5006;41.828;23.478;2022-11-23T08:19:29;89056.22;;;14.10;100.00
9935;BME280;5006;41.828;23.478;2022-11-23T08:20:36;89060.09;;;14.22;100.00
9935;BME280;5006;41.828;23.478;2022-11-23T08:21:42;89055.13;;;14.42;100.00
9935;BME280;5006;41.828;23.478;2022-11-23T08:22:47;89053.19;;;14.64;100.00
9935;BME280;5006;41.828;23.478;2022-11-23T08:23:53;89060.41;;;14.45;100.00
9935;BME280;5006;41.828;23.478;2022-11-23T08:25:00;89057.03;;;14.54;100.00
9935;BME280;5006;41.828;23.478;2022-11-23T08:26:04;89059.72;;;14.54;100.00
9935;BME280;5006;41.828;23.478;2022-11-23T08:27:10;89058.53;;;14.76;100.00
9935;BME280;5006;41.828;23.478;2022-11-23T08:28:15;89058.84;;;14.78;100.00
9935;BME280;5006;41.828;23.478;2022-11-23T08:29:20;89049.59;;;14.67;98.92
9935;BME280;5006;41.828;23.478;2022-11-23T08:30:28;89054.00;;;14.73;99.52
9935;BME280;5006;41.828;23.478;2022-11-23T08:31:33;89058.13;;;14.87;99.52
9935;BME280;5006;41.828;23.478;2022-11-23T08:32:39;89054.38;;;14.84;100.00
9935;BME280;5006;41.828;23.478;2022-11-23T08:33:43;89065.66;;;14.92;98.38
9935;BME280;5006;41.828;23.478;2022-11-23T08:34:49;89060.19;;;15.04;98.55
9935;BME280;5006;41.828;23.478;2022-11-23T08:35:56;89061.41;;;14.82;97.86
9935;BME280;5006;41.828;23.478;2022-11-23T08:37:07;89056.72;;;14.30;100.00
9935;BME280;5006;41.828;23.478;2022-11-23T08:38:13;89058.22;;;13.97;100.00
9935;BME280;5006;41.828;23.478;2022-11-23T08:39:19;89054.69;;;13.54;100.00
9935;BME280;5006;41.828;23.478;2022-11-23T08:40:24;89057.81;;;13.40;100.00
9935;BME280;5006;41.828;23.478;2022-11-23T08:41:30;89052.97;;;13.35;100.00
9935;BME280;5006;41.828;23.478;2022-11-23T08:42:35;89060.06;;;13.41;100.00
9935;BME280;5006;41.828;23.478;2022-11-23T08:43:41;89055.84;;;13.53;100.00
9935;BME280;5006;41.828;23.478;2022-11-23T08:44:47;89055.97;;;13.37;100.00
9935;BME280;5006;41.828;23.478;2022-11-23T08:45:53;89051.38;;;13.25;100.00
9935;BME280;5006;41.828;23.478;2022-11-23T08:46:58;89054.50;;;13.11;100.00
9935;BME280;5006;41.828;23.478;2022-11-23T08:48:04;89057.81;;;13.15;100.00
9935;BME280;5006;41.828;23.478;2022-11-23T08:49:09;89061.56;;;13.55;100.00
9935;BME280;5006;41.828;23.478;2022-11-23T08:50:15;89052.47;;;13.74;100.00
9935;BME280;5006;41.828;23.478;2022-11-23T08:51:21;89050.38;;;13.31;100.00
9935;BME280;5006;41.828;23.478;2022-11-23T08:52:27;89063.13;;;13.31;100.00
9935;BME280;5006;41.828;23.478;2022-11-23T08:53:33;89058.13;;;13.54;100.00
9935;BME280;5006;41.828;23.478;2022-11-23T08:54:38;89059.88;;;13.48;100.00
9935;BME280;5006;41.828;23.478;2022-11-23T08:55:45;89060.00;;;13.79;100.00
9935;BME280;5006;41.828;23.478;2022-11-23T08:56:51;89069.03;;;13.85;100.00
9935;BME280;5006;41.828;23.478;2022-11-23T08:57:57;89070.75;;;13.20;100.00
9935;BME280;5006;41.828;23.478;2022-11-23T08:59:03;89066.97;;;12.80;100.00
9935;BME280;5006;41.828;23.478;2022-11-23T09:00:08;89072.06;;;13.15;100.00
9935;BME280;5006;41.828;23.478;2022-11-23T09:01:15;89082.97;;;13.71;100.00
9935;BME280;5006;41.828;23.478;2022-11-23T09:02:23;89083.84;;;14.02;100.00
9935;BME280;5006;41.828;23.478;2022-11-23T09:03:29;89082.47;;;13.97;100.00
9935;BME280;5006;41.828;23.478;2022-11-23T09:04:34;89072.25;;;13.92;100.00
9935;BME280;5006;41.828;23.478;2022-11-23T09:05:39;89079.56;;;13.58;100.00
9935;BME280;5006;41.828;23.478;2022-11-23T09:06:46;89074.50;;;13.35;100.00
9935;BME280;5006;41.828;23.478;2022-11-23T09:07:52;89079.72;;;13.76;100.00
9935;BME280;5006;41.828;23.478;2022-11-23T09:08:58;89069.16;;;14.15;100.00
9935;BME280;5006;41.828;23.478;2022-11-23T09:10:05;89069.63;;;13.67;100.00
9935;BME280;5006;41.828;23.478;2022-11-23T09:11:12;89070.97;;;14.31;100.00
9935;BME280;5006;41.828;23.478;2022-11-23T09:12:18;89063.44;;;14.69;100.00
9935;BME280;5006;41.828;23.478;2022-11-23T09:13:24;89058.59;;;15.24;99.50
9935;BME280;5006;41.828;23.478;2022-11-23T09:14:29;89060.88;;;14.96;97.08
9935;BME280;5006;41.828;23.478;2022-11-23T09:15:36;89057.41;;;14.65;98.17
9935;BME280;5006;41.828;23.478;2022-11-23T09:16:42;89046.34;;;14.72;99.47
9935;BME280;5006;41.828;23.478;2022-11-23T09:17:47;89049.00;;;15.63;94.95
9935;BME280;5006;41.828;23.478;2022-11-23T09:18:55;89048.97;;;15.14;94.62
9935;BME280;5006;41.828;23.478;2022-11-23T09:20:01;89043.75;;;15.20;95.26
9935;BME280;5006;41.828;23.478;2022-11-23T09:21:06;89042.84;;;15.23;94.82
9935;BME280;5006;41.828;23.478;2022-11-23T09:22:13;89038.03;;;14.88;95.74
9935;BME280;5006;41.828;23.478;2022-11-23T09:23:19;89043.31;;;14.91;97.02
9935;BME280;5006;41.828;23.478;2022-11-23T09:24:25;89045.22;;;14.82;97.36
9935;BME280;5006;41.828;23.478;2022-11-23T09:28:09;89052.69;;;15.38;92.66
9935;BME280;5006;41.828;23.478;2022-11-23T09:29:18;89047.03;;;15.54;93.36
9935;BME280;5006;41.828;23.478;2022-11-23T09:30:24;89046.78;;;15.79;91.31
9935;BME280;5006;41.828;23.478;2022-11-23T09:31:29;89047.69;;;15.76;88.73
9935;BME280;5006;41.828;23.478;2022-11-23T09:32:34;89054.41;;;15.23;90.18
9935;BME280;5006;41.828;23.478;2022-11-23T09:33:40;89052.03;;;15.65;88.45
9935;BME280;5006;41.828;23.478;2022-11-23T09:34:46;89047.81;;;15.24;89.20
9935;BME280;5006;41.828;23.478;2022-11-23T09:35:56;89057.00;;;15.06;91.04
9935;BME280;5006;41.828;23.478;2022-11-23T09:37:01;89056.41;;;15.02;90.33
9935;BME280;5006;41.828;23.478;2022-11-23T09:38:08;89063.28;;;13.49;98.31
9935;BME280;5006;41.828;23.478;2022-11-23T09:39:13;89065.63;;;13.59;100.00
9935;BME280;5006;41.828;23.478;2022-11-23T09:40:19;89053.91;;;14.34;100.00
9935;BME280;5006;41.828;23.478;2022-11-23T09:41:46;89055.69;;;13.81;100.00
9935;BME280;5006;41.828;23.478;2022-11-23T09:43:16;89049.94;;;14.69;100.00
9935;BME280;5006;41.828;23.478;2022-11-23T09:46:46;89030.13;;;14.93;95.42
9935;BME280;5006;41.828;23.478;2022-11-23T09:48:17;89030.97;;;15.12;97.70
9935;BME280;5006;41.828;23.478;2022-11-23T09:49:32;89043.66;;;15.02;89.46
9935;BME280;5006;41.828;23.478;2022-11-23T09:50:45;89054.09;;;14.61;92.13
9935;BME280;5006;41.828;23.478;2022-11-23T09:51:53;89053.28;;;14.51;98.18
9935;BME280;5006;41.828;23.478;2022-11-23T09:53:02;89053.69;;;13.94;100.00
9935;BME280;5006;41.828;23.478;2022-11-23T09:54:21;89059.44;;;13.84;100.00
9935;BME280;5006;41.828;23.478;2022-11-23T09:55:35;89062.34;;;13.43;100.00
9935;BME280;5006;41.828;23.478;2022-11-23T09:56:43;89060.94;;;13.38;100.00
9935;BME280;5006;41.828;23.478;2022-11-23T09:57:50;89057.53;;;13.72;100.00
9935;BME280;5006;41.828;23.478;2022-11-23T09:59:01;89052.88;;;13.38;100.00
9935;BME280;5006;41.828;23.478;2022-11-23T10:00:16;89056.22;;;13.30;100.00
9935;BME280;5006;41.828;23.478;2022-11-23T10:01:24;89056.09;;;13.46;100.00
9935;BME280;5006;41.828;23.478;2022-11-23T10:02:35;89051.00;;;13.94;100.00
9935;BME280;5006;41.828;23.478;2022-11-23T10:03:44;89055.28;;;14.38;100.00
9935;BME280;5006;41.828;23.478;2022-11-23T10:04:51;89055.47;;;14.44;100.00
9935;BME280;5006;41.828;23.478;2022-11-23T10:06:01;89053.19;;;14.64;98.16
9935;BME280;5006;41.828;23.478;2022-11-23T10:07:22;89058.50;;;14.98;96.63
9935;BME280;5006;41.828;23.478;2022-11-23T10:08:40;89053.25;;;14.73;95.86
9935;BME280;5006;41.828;23.478;2022-11-23T10:09:58;89048.00;;;15.30;95.52
9935;BME280;5006;41.828;23.478;2022-11-23T10:11:25;89046.53;;;15.08;90.65
9935;BME280;5006;41.828;23.478;2022-11-23T10:12:43;89045.25;;;15.21;88.34
9935;BME280;5006;41.828;23.478;2022-11-23T10:14:02;89037.69;;;15.07;89.44
9935;BME280;5006;41.828;23.478;2022-11-23T10:15:14;89035.88;;;15.43;87.72
9935;BME280;5006;41.828;23.478;2022-11-23T10:16:30;89038.91;;;15.45;87.83
9935;BME280;5006;41.828;23.478;2022-11-23T10:18:12;89036.28;;;15.72;89.09
9935;BME280;5006;41.828;23.478;2022-11-23T10:19:27;89040.78;;;15.75;88.38
9935;BME280;5006;41.828;23.478;2022-11-23T10:20:44;89035.09;;;15.91;87.49
9935;BME280;5006;41.828;23.478;2022-11-23T10:21:58;89040.25;;;15.50;86.92
9935;BME280;5006;41.828;23.478;2022-11-23T10:23:16;89041.94;;;15.26;86.19
9935;BME280;5006;41.828;23.478;2022-11-23T10:24:30;89036.44;;;15.29;86.48
9935;BME280;5006;41.828;23.478;2022-11-23T10:25:40;89043.34;;;15.30;87.11
9935;BME280;5006;41.828;23.478;2022-11-23T10:26:50;89048.34;;;15.41;88.47
9935;BME280;5006;41.828;23.478;2022-11-23T10:27:59;89048.88;;;14.97;89.83
9935;BME280;5006;41.828;23.478;2022-11-23T10:29:12;89042.78;;;15.05;90.07
9935;BME280;5006;41.828;23.478;2022-11-23T10:30:19;89042.84;;;14.93;90.74
9935;BME280;5006;41.828;23.478;2022-11-23T10:31:27;89044.28;;;15.06;89.99
9935;BME280;5006;41.828;23.478;2022-11-23T10:32:37;89035.59;;;15.11;88.90
9935;BME280;5006;41.828;23.478;2022-11-23T10:33:52;89033.84;;;15.65;88.83
9935;BME280;5006;41.828;23.478;2022-11-23T10:35:03;89032.31;;;15.16;87.86
9935;BME280;5006;41.828;23.478;2022-11-23T10:36:10;89038.34;;;15.59;86.70
9935;BME280;5006;41.828;23.478;2022-11-23T10:37:17;89026.44;;;15.39;85.03
9935;BME280;5006;41.828;23.478;2022-11-23T10:38:25;89029.28;;;15.44;85.36
9935;BME280;5006;41.828;23.478;2022-11-23T10:39:31;89033.91;;;16.28;84.09
9935;BME280;5006;41.828;23.478;2022-11-23T10:40:44;89029.41;;;16.25;84.16
9935;BME280;5006;41.828;23.478;2022-11-23T10:42:00;89033.00;;;16.67;81.02
9935;BME280;5006;41.828;23.478;2022-11-23T10:43:13;89030.44;;;16.28;80.51
9935;BME280;5006;41.828;23.478;2022-11-23T10:44:28;89034.53;;;15.96;81.69
9935;BME280;5006;41.828;23.478;2022-11-23T10:45:34;89029.13;;;16.23;78.38
9935;BME280;5006;41.828;23.478;2022-11-23T10:46:40;89031.00;;;15.69;79.72
9935;BME280;5006;41.828;23.478;2022-11-23T10:47:50;89023.53;;;15.82;79.75
9935;BME280;5006;41.828;23.478;2022-11-23T10:49:25;89033.28;;;15.88;74.38
9935;BME280;5006;41.828;23.478;2022-11-23T10:50:33;89027.59;;;15.86;77.42
9935;BME280;5006;41.828;23.478;2022-11-23T10:51:48;89026.66;;;15.80;78.28
9935;BME280;5006;41.828;23.478;2022-11-23T10:52:55;89029.72;;;16.00;77.86
9935;BME280;5006;41.828;23.478;2022-11-23T10:54:03;89026.41;;;16.23;77.27
9935;BME280;5006;41.828;23.478;2022-11-23T10:55:13;89024.16;;;16.22;77.38
9935;BME280;5006;41.828;23.478;2022-11-23T10:56:22;89011.34;;;15.77;76.98
9935;BME280;5006;41.828;23.478;2022-11-23T10:57:31;89019.59;;;15.74;77.37
9935;BME280;5006;41.828;23.478;2022-11-23T10:58:41;89014.84;;;15.29;78.57
9935;BME280;5006;41.828;23.478;2022-11-23T10:59:56;89018.38;;;15.57;78.66
9935;BME280;5006;41.828;23.478;2022-11-23T11:01:05;89016.56;;;15.54;79.02
9935;BME280;5006;41.828;23.478;2022-11-23T11:02:16;89016.66;;;15.32;80.35
9935;BME280;5006;41.828;23.478;2022-11-23T11:03:23;89012.69;;;14.85;83.71
9935;BME280;5006;41.828;23.478;2022-11-23T11:04:28;89011.41;;;14.68;84.06
9935;BME280;5006;41.828;23.478;2022-11-23T11:05:36;89009.47;;;14.69;85.60
9935;BME280;5006;41.828;23.478;2022-11-23T11:06:41;89008.78;;;14.86;86.26
9935;BME280;5006;41.828;23.478;2022-11-23T11:07:46;89008.13;;;15.04;85.98
9935;BME280;5006;41.828;23.478;2022-11-23T11:08:54;89013.84;;;15.14;86.30
9935;BME280;5006;41.828;23.478;2022-11-23T11:10:01;89013.00;;;15.26;83.71
9935;BME280;5006;41.828;23.478;2022-11-23T11:11:10;89012.66;;;15.64;83.70
9935;BME280;5006;41.828;23.478;2022-11-23T11:12:28;89007.44;;;15.21;84.41
9935;BME280;5006;41.828;23.478;2022-11-23T11:13:41;89014.69;;;15.33;83.51
9935;BME280;5006;41.828;23.478;2022-11-23T11:14:59;89016.69;;;15.41;84.61
9935;BME280;5006;41.828;23.478;2022-11-23T11:16:18;89014.91;;;15.56;83.77
9935;BME280;5006;41.828;23.478;2022-11-23T11:17:25;89014.91;;;15.47;81.73
9935;BME280;5006;41.828;23.478;2022-11-23T11:18:32;89007.38;;;15.42;79.46
9935;BME280;5006;41.828;23.478;2022-11-23T11:19:38;89004.13;;;15.65;79.12
9935;BME280;5006;41.828;23.478;2022-11-23T11:20:44;89015.94;;;15.41;80.36
9935;BME280;5006;41.828;23.478;2022-11-23T11:21:50;89011.47;;;15.56;81.88
9935;BME280;5006;41.828;23.478;2022-11-23T11:22:57;89011.63;;;15.70;82.81
9935;BME280;5006;41.828;23.478;2022-11-23T11:24:04;89015.22;;;15.58;81.26
9935;BME280;5006;41.828;23.478;2022-11-23T11:25:26;89013.88;;;15.54;82.46
9935;BME280;5006;41.828;23.478;2022-11-23T11:26:32;89008.63;;;15.68;82.61
9935;BME280;5006;41.828;23.478;2022-11-23T11:27:50;89008.50;;;15.72;82.92
9935;BME280;5006;41.828;23.478;2022-11-23T11:28:57;89015.69;;;15.66;82.68
9935;BME280;5006;41.828;23.478;2022-11-23T11:30:06;89009.03;;;15.49;83.41
9935;BME280;5006;41.828;23.478;2022-11-23T11:31:42;89005.78;;;15.23;83.81
9935;BME280;5006;41.828;23.478;2022-11-23T11:32:54;89005.78;;;15.23;84.71
9935;BME280;5006;41.828;23.478;2022-11-23T11:34:10;89007.38;;;15.42;84.28
9935;BME280;5006;41.828;23.478;2022-11-23T11:35:23;89007.13;;;15.67;83.27
9935;BME280;5006;41.828;23.478;2022-11-23T11:36:35;89003.81;;;15.63;82.41
9935;BME280;5006;41.828;23.478;2022-11-23T11:37:45;89012.22;;;15.65;82.16
9935;BME280;5006;41.828;23.478;2022-11-23T11:38:54;89006.25;;;15.79;82.99
9935;BME280;5006;41.828;23.478;2022-11-23T11:40:07;89017.09;;;16.51;80.60
9935;BME280;5006;41.828;23.478;2022-11-23T11:41:14;89010.78;;;16.27;79.74
9935;BME280;5006;41.828;23.478;2022-11-23T11:42:34;89012.13;;;16.50;80.19
9935;BME280;5006;41.828;23.478;2022-11-23T11:43:46;89012.00;;;16.35;79.78
9935;BME280;5006;41.828;23.478;2022-11-23T11:44:54;89013.34;;;16.40;80.58
9935;BME280;5006;41.828;23.478;2022-11-23T11:46:04;89008.38;;;16.11;80.64
9935;BME280;5006;41.828;23.478;2022-11-23T11:47:23;89002.03;;;15.78;81.91
9935;BME280;5006;41.828;23.478;2022-11-23T11:48:33;89007.91;;;15.95;83.14
9935;BME280;5006;41.828;23.478;2022-11-23T11:49:43;89007.75;;;15.71;81.76
9935;BME280;5006;41.828;23.478;2022-11-23T11:50:54;89000.88;;;16.24;81.06
9935;BME280;5006;41.828;23.478;2022-11-23T11:52:05;89013.16;;;16.79;79.70
9935;BME280;5006;41.828;23.478;2022-11-23T11:53:17;89012.88;;;16.68;79.13
9935;BME280;5006;41.828;23.478;2022-11-23T11:54:27;89013.72;;;16.83;79.79
9935;BME280;5006;41.828;23.478;2022-11-23T11:55:46;89009.78;;;16.93;77.03
9935;BME280;5006;41.828;23.478;2022-11-23T11:56:59;89014.34;;;16.87;76.93
9935;BME280;5006;41.828;23.478;2022-11-23T11:58:10;89013.94;;;16.62;76.27
9935;BME280;5006;41.828;23.478;2022-11-23T11:59:21;89010.63;;;16.67;75.52
9935;BME280;5006;41.828;23.478;2022-11-23T12:00:29;89005.50;;;16.69;74.83
9935;BME280;5006;41.828;23.478;2022-11-23T12:01:44;89012.91;;;16.41;75.38
9935;BME280;5006;41.828;23.478;2022-11-23T12:03:00;89021.47;;;16.58;74.35
9935;BME280;5006;41.828;23.478;2022-11-23T12:04:15;89014.34;;;16.87;71.34
9935;BME280;5006;41.828;23.478;2022-11-23T12:05:24;89018.22;;;16.95;69.36
9935;BME280;5006;41.828;23.478;2022-11-23T12:06:35;89016.94;;;16.64;68.67
9935;BME280;5006;41.828;23.478;2022-11-23T12:07:46;89016.91;;;16.82;67.04
9935;BME280;5006;41.828;23.478;2022-11-23T12:09:01;89013.78;;;16.74;67.97
9935;BME280;5006;41.828;23.478;2022-11-23T12:10:11;89012.78;;;16.95;66.54
9935;BME280;5006;41.828;23.478;2022-11-23T12:11:19;89014.84;;;17.09;66.10
9935;BME280;5006;41.828;23.478;2022-11-23T12:12:33;89011.38;;;16.67;66.31
9935;BME280;5006;41.828;23.478;2022-11-23T12:13:41;89010.31;;;16.65;67.68
9935;BME280;5006;41.828;23.478;2022-11-23T12:14:49;89011.94;;;16.71;65.93
9935;BME280;5006;41.828;23.478;2022-11-23T12:16:04;89005.66;;;16.56;67.37
9935;BME280;5006;41.828;23.478;2022-11-23T12:17:36;89008.97;;;16.24;68.59
9935;BME280;5006;41.828;23.478;2022-11-23T12:19:04;89007.16;;;16.66;65.91
9935;BME280;5006;41.828;23.478;2022-11-23T12:20:18;89016.50;;;17.16;66.32
9935;BME280;5006;41.828;23.478;2022-11-23T12:23:16;89024.59;;;17.25;62.54
9935;BME280;5006;41.828;23.478;2022-11-23T12:24:33;89023.44;;;16.39;67.50
9935;BME280;5006;41.828;23.478;2022-11-23T12:25:50;89032.13;;;16.25;68.31
9935;BME280;5006;41.828;23.478;2022-11-23T12:27:05;89040.31;;;15.77;67.17
9935;BME280;5006;41.828;23.478;2022-11-23T12:28:25;89030.72;;;15.85;65.48
9935;BME280;5006;41.828;23.478;2022-11-23T12:29:51;89036.31;;;16.80;66.26
9935;BME280;5006;41.828;23.478;2022-11-23T12:31:08;89034.78;;;16.88;66.21
9935;BME280;5006;41.828;23.478;2022-11-23T12:32:24;89029.31;;;17.06;65.80
9935;BME280;5006;41.828;23.478;2022-11-23T12:33:51;89021.97;;;17.07;66.07
9935;BME280;5006;41.828;23.478;2022-11-23T12:35:19;89023.41;;;17.17;63.84
9935;BME280;5006;41.828;23.478;2022-11-23T12:38:20;89019.25;;;17.48;65.12
9935;BME280;5006;41.828;23.478;2022-11-23T12:39:51;89028.94;;;17.40;62.35
9935;BME280;5006;41.828;23.478;2022-11-23T12:41:09;89031.41;;;17.11;61.76
9935;BME280;5006;41.828;23.478;2022-11-23T12:42:23;89026.47;;;17.10;61.90
9935;BME280;5006;41.828;23.478;2022-11-23T12:43:35;89029.38;;;17.39;59.98
9935;BME280;5006;41.828;23.478;2022-11-23T12:45:07;89038.72;;;17.38;58.04
9935;BME280;5006;41.828;23.478;2022-11-23T12:46:24;89039.78;;;17.31;58.82
9935;BME280;5006;41.828;23.478;2022-11-23T12:47:44;89033.59;;;17.72;61.92
9935;BME280;5006;41.828;23.478;2022-11-23T12:49:08;89037.75;;;17.08;68.00
9935;BME280;5006;41.828;23.478;2022-11-23T12:50:22;89034.84;;;16.52;70.48
9935;BME280;5006;41.828;23.478;2022-11-23T12:51:37;89033.63;;;16.26;72.42
9935;BME280;5006;41.828;23.478;2022-11-23T12:52:58;89042.31;;;16.21;73.51
9935;BME280;5006;41.828;23.478;2022-11-23T12:54:24;89038.72;;;16.06;74.56
9935;BME280;5006;41.828;23.478;2022-11-23T12:55:46;89033.91;;;16.28;75.21
9935;BME280;5006;41.828;23.478;2022-11-23T12:57:03;89038.72;;;16.06;74.90
9935;BME280;5006;41.828;23.478;2022-11-23T12:58:17;89042.34;;;16.30;72.39
9935;BME280;5006;41.828;23.478;2022-11-23T12:59:29;89046.84;;;16.33;70.63
9935;BME280;5006;41.828;23.478;2022-11-23T13:00:47;89051.81;;;16.62;69.17
9935;BME280;5006;41.828;23.478;2022-11-23T13:01:59;89061.91;;;16.61;66.88
9935;BME280;5006;41.828;23.478;2022-11-23T13:05:04;89066.41;;;16.73;64.42
9935;BME280;5006;41.828;23.478;2022-11-23T13:08:21;89071.53;;;16.53;71.85
9935;BME280;5006;41.828;23.478;2022-11-23T13:09:54;89064.75;;;16.67;73.96
9935;BME280;5006;41.828;23.478;2022-11-23T13:11:17;89061.75;;;16.47;74.68
9935;BME280;5006;41.828;23.478;2022-11-23T13:12:45;89062.75;;;16.04;76.46
9935;BME280;5006;41.828;23.478;2022-11-23T13:14:04;89071.03;;;15.52;73.48
9935;BME280;5006;41.828;23.478;2022-11-23T13:15:25;89060.28;;;15.70;73.92
9935;BME280;5006;41.828;23.478;2022-11-23T13:17:07;89066.78;;;16.00;74.50
9935;BME280;5006;41.828;23.478;2022-11-23T13:18:33;89054.47;;;15.99;75.84
9935;BME280;5006;41.828;23.478;2022-11-23T13:21:28;89067.97;;;15.81;77.13
9935;BME280;5006;41.828;23.478;2022-11-23T13:22:39;89068.47;;;15.97;77.90
9935;BME280;5006;41.828;23.478;2022-11-23T13:23:49;89064.06;;;15.82;78.60
9935;BME280;5006;41.828;23.478;2022-11-23T13:25:01;89064.28;;;15.48;79.81
9935;BME280;5006;41.828;23.478;2022-11-23T13:26:15;89071.25;;;15.67;78.69
9935;BME280;5006;41.828;23.478;2022-11-23T13:27:41;89062.34;;;15.48;78.48
9935;BME280;5006;41.828;23.478;2022-11-23T13:28:48;89068.63;;;15.45;77.06
9935;BME280;5006;41.828;23.478;2022-11-23T13:29:55;89063.97;;;15.46;78.32
9935;BME280;5006;41.828;23.478;2022-11-23T13:31:33;89065.03;;;15.18;79.69
9935;BME280;5006;41.828;23.478;2022-11-23T13:32:52;89061.31;;;14.94;80.54
9935;BME280;5006;41.828;23.478;2022-11-23T13:34:00;89069.81;;;14.84;80.20
9935;BME280;5006;41.828;23.478;2022-11-23T13:36:57;89078.41;;;15.21;80.30
9935;BME280;5006;41.828;23.478;2022-11-23T13:38:25;89079.56;;;15.12;79.41
9935;BME280;5006;41.828;23.478;2022-11-23T13:43:03;89081.50;;;15.11;79.70
9935;BME280;5006;41.828;23.478;2022-11-23T13:44:18;89073.31;;;14.93;79.34
9935;BME280;5006;41.828;23.478;2022-11-23T13:45:26;89081.13;;;14.70;80.19
9935;BME280;5006;41.828;23.478;2022-11-23T13:46:34;89077.97;;;14.71;80.92
9935;BME280;5006;41.828;23.478;2022-11-23T13:47:40;89087.19;;;14.40;81.39
9935;BME280;5006;41.828;23.478;2022-11-23T13:48:49;89077.78;;;14.66;82.04
9935;BME280;5006;41.828;23.478;2022-11-23T13:50:07;89080.53;;;14.75;82.86
9935;BME280;5006;41.828;23.478;2022-11-23T13:51:22;89087.38;;;14.67;82.52
9935;BME280;5006;41.828;23.478;2022-11-23T13:52:29;89086.97;;;14.47;81.84
9935;BME280;5006;41.828;23.478;2022-11-23T13:53:37;89089.09;;;14.52;82.99
9935;BME280;5006;41.828;23.478;2022-11-23T13:54:53;89094.75;;;14.45;82.13
9935;BME280;5006;41.828;23.478;2022-11-23T13:56:15;89091.41;;;14.41;81.86
9935;BME280;5006;41.828;23.478;2022-11-23T13:57:22;89100.53;;;14.22;82.51